createdAt,value
2022-11-15T00:00:45.671Z,116.03
2022-11-15T00:03:31.366Z,132.47
2022-11-15T00:06:16.927Z,127.40
2022-11-15T00:09:02.447Z,131.10
2022-11-15T00:11:48.093Z,141.27
2022-11-15T00:14:33.686Z,130.67
2022-11-15T00:17:19.026Z,123.83
2022-11-15T00:20:04.768Z,130.90
2022-11-15T00:22:50.344Z,131.07
2022-11-15T00:25:35.878Z,117.57
2022-11-15T00:28:20.832Z,117.37
2022-11-15T00:31:08.951Z,108.03
2022-11-15T00:33:54.288Z,113.10
2022-11-15T00:36:39.731Z,105.57
2022-11-15T00:39:37.819Z,115.43
2022-11-15T00:42:23.384Z,99.80
2022-11-15T00:45:09.419Z,97.63
2022-11-15T00:47:54.961Z,102.40
2022-11-15T00:50:40.775Z,102.57
2022-11-15T00:53:26.066Z,92.80
2022-11-15T00:56:11.711Z,88.13
2022-11-15T00:58:57.130Z,96.23
2022-11-15T01:01:42.882Z,104.87
2022-11-15T01:04:28.592Z,97.37
2022-11-15T01:07:14.536Z,105.87
2022-11-15T01:12:59.320Z,87.78
2022-11-15T01:15:46.787Z,110.17
2022-11-15T01:18:32.520Z,109.23
2022-11-15T01:21:20.111Z,116.10
2022-11-15T01:24:05.949Z,111.80
2022-11-15T01:26:52.256Z,109.93
2022-11-15T01:29:37.672Z,109.83
2022-11-15T01:32:23.080Z,110.57
2022-11-15T01:35:09.013Z,119.70
2022-11-15T01:37:54.530Z,123.53
2022-11-15T01:40:39.849Z,115.10
2022-11-15T01:43:30.942Z,113.83
2022-11-15T01:46:27.436Z,107.43
2022-11-15T01:49:18.862Z,108.73
2022-11-15T01:52:08.462Z,109.53
2022-11-15T01:55:26.032Z,108.05
2022-11-15T01:58:11.710Z,107.37
2022-11-15T02:00:57.447Z,104.37
2022-11-15T02:06:52.499Z,107.77
2022-11-15T02:09:38.991Z,111.37
2022-11-15T02:12:24.514Z,101.80
2022-11-15T02:15:11.477Z,100.83
2022-11-15T02:18:38.297Z,100.87
2022-11-15T02:21:43.842Z,104.30
2022-11-15T02:24:58.718Z,102.50
2022-11-15T02:28:07.311Z,111.07
2022-11-15T02:31:06.361Z,106.47
2022-11-15T02:34:04.755Z,95.18
2022-11-15T02:37:12.706Z,102.67
2022-11-15T02:40:18.590Z,102.10
2022-11-15T02:43:31.682Z,90.53
2022-11-15T02:46:48.966Z,99.03
2022-11-15T02:49:36.313Z,97.37
2022-11-15T02:52:24.470Z,104.27
2022-11-15T02:55:31.662Z,91.43
2022-11-15T02:58:38.294Z,98.30
2022-11-15T03:01:45.624Z,94.00
2022-11-15T03:05:00.370Z,113.73
2022-11-15T03:07:48.629Z,128.13
2022-11-15T03:10:40.396Z,115.70
2022-11-15T03:13:32.451Z,102.23
2022-11-15T03:16:26.110Z,108.33
2022-11-15T03:19:39.151Z,102.17
2022-11-15T03:22:27.402Z,94.63
2022-11-15T03:25:20.537Z,106.33
2022-11-15T03:28:07.970Z,100.93
2022-11-15T03:30:56.053Z,100.00
2022-11-15T03:33:42.175Z,104.53
2022-11-15T03:36:28.591Z,98.70
2022-11-15T03:39:20.390Z,102.17
2022-11-15T03:45:40.716Z,96.47
2022-11-15T03:51:15.018Z,103.57
2022-11-15T03:54:00.661Z,101.03
2022-11-15T03:56:45.880Z,108.17
2022-11-15T03:59:31.199Z,103.87
2022-11-15T04:02:17.017Z,113.10
2022-11-15T04:05:02.644Z,110.70
2022-11-15T04:07:47.970Z,101.33
2022-11-15T04:10:33.250Z,103.77
2022-11-15T04:13:18.493Z,100.87
2022-11-15T04:16:03.889Z,99.67
2022-11-15T04:19:09.207Z,102.87
2022-11-15T04:22:13.292Z,103.90
2022-11-15T04:24:58.628Z,103.50
2022-11-15T04:27:43.973Z,96.77
2022-11-15T04:30:29.307Z,99.63
2022-11-15T04:33:14.542Z,105.10
2022-11-15T04:36:18.432Z,103.43
2022-11-15T04:39:04.144Z,97.03
2022-11-15T04:41:49.639Z,112.27
2022-11-15T04:44:35.032Z,113.93
2022-11-15T04:47:20.714Z,103.30
2022-11-15T04:50:06.765Z,112.83
2022-11-15T04:52:54.171Z,112.43
2022-11-15T04:55:39.772Z,109.17
2022-11-15T04:58:25.050Z,121.23
2022-11-15T05:01:15.839Z,104.87
2022-11-15T05:04:19.956Z,108.00
2022-11-15T05:07:05.656Z,109.63
2022-11-15T05:09:50.973Z,123.30
2022-11-15T05:12:36.586Z,157.50
2022-11-15T05:15:22.507Z,133.60
2022-11-15T05:18:08.266Z,127.23
2022-11-15T05:20:53.467Z,134.47
2022-11-15T05:23:38.845Z,226.10
2022-11-15T05:26:24.601Z,205.97
2022-11-15T05:29:11.347Z,183.20
2022-11-15T05:31:56.686Z,206.87
2022-11-15T05:34:41.969Z,201.47
2022-11-15T05:37:27.291Z,206.10
2022-11-15T05:40:12.812Z,178.50
2022-11-15T05:43:00.518Z,184.60
2022-11-15T05:45:46.201Z,222.43
2022-11-15T05:48:32.204Z,193.97
2022-11-15T05:51:19.961Z,212.43
2022-11-15T05:54:05.703Z,216.13
2022-11-15T05:56:51.903Z,253.73
2022-11-15T05:59:37.487Z,212.87
2022-11-15T06:02:23.416Z,229.80
2022-11-15T06:05:09.097Z,216.67
2022-11-15T07:03:48.925Z,205.57
2022-11-15T07:06:34.481Z,188.57
2022-11-15T07:09:19.866Z,182.00
2022-11-15T07:12:07.826Z,172.93
2022-11-15T07:14:53.344Z,166.60
2022-11-15T07:17:38.944Z,179.73
2022-11-15T07:20:24.686Z,174.93
2022-11-15T07:23:11.951Z,157.27
2022-11-15T07:25:59.363Z,166.17
2022-11-15T07:28:45.076Z,151.77
2022-11-15T07:31:30.697Z,152.30
2022-11-15T07:34:15.902Z,138.37
2022-11-15T07:37:01.161Z,141.33
2022-11-15T07:39:46.718Z,157.13
2022-11-15T07:43:04.998Z,135.53
2022-11-15T07:45:57.612Z,131.37
2022-11-15T07:48:45.294Z,128.90
2022-11-15T07:51:31.328Z,136.57
2022-11-15T07:54:16.787Z,138.93
2022-11-15T07:57:06.871Z,170.27
2022-11-15T07:59:53.186Z,177.13
2022-11-15T08:02:38.764Z,153.83
2022-11-15T08:05:24.552Z,138.53
2022-11-15T08:08:13.528Z,136.73
2022-11-15T08:11:00.877Z,136.57
2022-11-15T08:13:46.585Z,163.80
2022-11-15T08:45:27.721Z,160.23
2022-11-15T08:48:13.188Z,155.23
2022-11-15T08:50:58.629Z,165.57
2022-11-15T08:53:44.017Z,164.10
2022-11-15T08:56:29.605Z,153.33
2022-11-15T08:59:15.301Z,157.80
2022-11-15T09:02:00.524Z,145.60
2022-11-15T09:04:45.863Z,147.60
2022-11-15T09:07:31.854Z,146.33
2022-11-15T09:10:17.244Z,152.63
2022-11-15T09:13:02.965Z,133.57
2022-11-15T09:15:48.565Z,134.33
2022-11-15T09:18:34.651Z,125.97
2022-11-15T09:21:20.268Z,128.27
2022-11-15T09:24:05.993Z,113.10
2022-11-15T09:26:52.570Z,108.97
2022-11-15T09:29:38.135Z,112.47
2022-11-15T09:32:26.227Z,110.80
2022-11-15T09:35:11.853Z,107.37
2022-11-15T09:37:59.286Z,108.50
2022-11-15T09:40:44.611Z,100.50
2022-11-15T09:43:41.754Z,103.90
2022-11-15T09:46:52.269Z,99.57
2022-11-15T09:49:30.627Z,103.17
2022-11-15T09:52:16.315Z,107.90
2022-11-15T09:54:53.903Z,102.00
2022-11-15T09:57:24.493Z,96.57
2022-11-15T10:00:44.055Z,108.90
2022-11-15T10:02:58.616Z,93.20
2022-11-15T10:05:27.450Z,86.80
2022-11-15T10:08:06.861Z,92.70
2022-11-15T10:10:40.859Z,96.23
2022-11-15T10:13:17.935Z,93.33
2022-11-15T10:15:48.858Z,89.67
2022-11-15T10:18:21.982Z,88.87
2022-11-15T10:21:14.645Z,91.47
2022-11-15T10:23:41.603Z,80.97
2022-11-15T10:26:12.397Z,89.03
2022-11-15T10:28:39.285Z,84.97
2022-11-15T10:31:27.466Z,88.47
2022-11-15T10:34:24.947Z,81.57
2022-11-15T10:37:00.401Z,87.18
2022-11-15T10:39:28.327Z,79.00
2022-11-15T10:41:55.629Z,82.18
2022-11-15T10:44:32.681Z,83.95
2022-11-15T10:46:59.467Z,88.20
2022-11-15T10:49:31.618Z,87.22
2022-11-15T10:52:13.578Z,75.53
2022-11-15T10:54:52.861Z,80.93
2022-11-15T10:57:22.791Z,81.65
2022-11-15T10:59:53.409Z,89.82
2022-11-15T11:02:28.664Z,86.82
2022-11-15T11:04:57.476Z,80.78
2022-11-15T11:07:27.573Z,81.43
2022-11-15T11:10:44.055Z,77.75
2022-11-15T11:13:40.974Z,82.90
2022-11-15T11:16:16.593Z,87.88
2022-11-15T11:19:04.780Z,89.25
2022-11-15T11:21:54.346Z,99.07
2022-11-15T11:24:27.324Z,90.82
2022-11-15T11:27:23.136Z,90.40
2022-11-15T11:29:53.887Z,88.45
2022-11-15T11:32:32.484Z,92.28
2022-11-15T11:35:23.868Z,94.88
2022-11-15T11:37:58.940Z,93.78
2022-11-15T11:40:36.008Z,99.53
2022-11-15T11:43:35.860Z,91.10
2022-11-15T11:46:27.351Z,95.20
2022-11-15T11:49:10.306Z,87.68
2022-11-15T11:51:44.771Z,89.47
2022-11-15T11:54:20.579Z,99.85
2022-11-15T11:56:49.606Z,88.63
2022-11-15T11:59:34.954Z,91.13
2022-11-15T12:02:20.379Z,87.93
2022-11-15T12:05:04.325Z,94.65
2022-11-15T12:07:35.214Z,99.28
2022-11-15T12:10:21.097Z,90.15
2022-11-15T12:13:14.735Z,96.82
2022-11-15T12:16:13.462Z,92.22
2022-11-15T12:18:49.193Z,91.82
2022-11-15T12:21:37.780Z,94.38
2022-11-15T12:24:14.006Z,95.30
2022-11-15T12:26:52.470Z,97.28
2022-11-15T12:29:38.822Z,97.90
2022-11-15T12:32:12.444Z,93.90
2022-11-15T12:34:44.545Z,95.90
2022-11-15T12:37:35.984Z,98.55
2022-11-15T12:40:22.935Z,102.63
2022-11-15T12:43:14.509Z,92.97
2022-11-15T12:45:43.931Z,94.13
2022-11-15T12:50:57.682Z,92.50
2022-11-15T12:53:29.615Z,93.68
2022-11-15T12:56:16.203Z,96.63
2022-11-15T12:58:59.378Z,101.72
2022-11-15T13:01:35.231Z,90.40
2022-11-15T13:04:20.088Z,90.10
2022-11-15T13:06:51.339Z,89.28
2022-11-15T13:09:30.373Z,84.18
2022-11-15T13:11:59.509Z,84.28
2022-11-15T13:14:38.157Z,85.78
2022-11-15T13:17:17.514Z,83.20
2022-11-15T13:19:46.605Z,86.97
2022-11-15T13:22:32.437Z,92.25
2022-11-15T13:25:01.936Z,93.38
2022-11-15T13:27:30.024Z,90.28
2022-11-15T13:29:57.006Z,95.32
2022-11-15T13:32:23.913Z,96.68
2022-11-15T13:34:53.961Z,96.00
2022-11-15T13:37:20.834Z,91.82
2022-11-15T13:39:54.358Z,88.78
2022-11-15T13:42:22.408Z,94.65
2022-11-15T13:45:05.298Z,89.90
2022-11-15T13:47:33.154Z,86.55
2022-11-15T13:50:02.183Z,92.60
2022-11-15T13:52:40.653Z,90.55
2022-11-15T13:55:12.898Z,95.27
2022-11-15T13:57:49.257Z,99.15
2022-11-15T14:00:45.361Z,94.07
2022-11-15T14:03:28.963Z,96.28
2022-11-15T14:06:07.922Z,90.25
2022-11-15T14:08:36.752Z,94.80
2022-11-15T14:11:22.216Z,101.05
2022-11-15T14:14:10.578Z,94.80
2022-11-15T14:16:38.906Z,95.50
2022-11-15T14:19:07.956Z,98.18
2022-11-15T14:21:34.845Z,94.07
2022-11-15T14:24:21.927Z,90.93
2022-11-15T14:26:49.669Z,88.80
2022-11-15T14:29:30.918Z,95.78
2022-11-15T14:32:47.087Z,99.15
2022-11-15T14:35:18.468Z,95.03
2022-11-15T14:37:45.985Z,93.73
2022-11-15T14:40:22.174Z,89.47
2022-11-15T14:42:51.053Z,93.80
2022-11-15T14:45:21.275Z,143.80
2022-11-15T14:47:48.911Z,92.87
2022-11-15T14:50:22.099Z,87.57
2022-11-15T14:52:49.852Z,89.03
2022-11-15T14:55:21.594Z,84.43
2022-11-15T14:57:48.473Z,83.83
2022-11-15T15:00:15.696Z,85.87
2022-11-15T15:02:44.430Z,80.03
2022-11-15T15:05:18.181Z,83.45
2022-11-15T15:07:45.446Z,80.63
2022-11-15T15:13:00.555Z,82.47
2022-11-15T15:15:37.328Z,82.57
2022-11-15T15:18:05.980Z,84.97
2022-11-15T15:20:33.454Z,87.75
2022-11-15T15:23:00.435Z,89.47
2022-11-15T15:25:33.927Z,106.17
2022-11-15T15:28:01.684Z,128.63
2022-11-15T15:30:31.698Z,112.13
2022-11-15T15:32:58.815Z,111.10
2022-11-15T15:35:31.817Z,109.90
2022-11-15T15:37:59.054Z,110.13
2022-11-15T15:40:27.934Z,117.93
2022-11-15T15:42:55.692Z,135.43
2022-11-15T15:45:22.560Z,132.40
2022-11-15T15:47:50.594Z,125.13
2022-11-15T15:50:32.719Z,123.50
2022-11-15T15:53:01.890Z,124.03
2022-11-15T15:55:29.521Z,128.27
2022-11-15T15:57:56.564Z,135.07
2022-11-15T16:00:25.931Z,133.00
2022-11-15T16:05:22.161Z,124.90
2022-11-15T16:07:49.071Z,129.45
2022-11-15T16:10:20.594Z,123.97
2022-11-15T16:12:48.220Z,123.37
2022-11-15T16:15:16.138Z,132.10
2022-11-15T16:17:49.365Z,122.23
2022-11-15T16:20:33.834Z,110.93
2022-11-15T16:23:07.267Z,122.57
2022-11-15T16:25:40.978Z,112.03
2022-11-15T16:28:32.338Z,125.73
2022-11-15T16:31:05.565Z,125.67
2022-11-15T16:33:33.353Z,120.33
2022-11-15T16:36:00.739Z,129.40
2022-11-15T16:38:27.554Z,136.83
2022-11-15T16:40:57.044Z,121.43
2022-11-15T16:45:51.875Z,124.40
2022-11-15T16:48:27.091Z,127.87
2022-11-15T16:50:58.859Z,120.23
2022-11-15T16:53:27.908Z,118.93
2022-11-15T16:55:55.817Z,117.30
2022-11-15T16:58:23.026Z,114.73
2022-11-15T17:00:56.616Z,114.30
2022-11-15T17:03:24.890Z,124.37
2022-11-15T17:05:51.921Z,113.73
2022-11-15T17:08:20.982Z,118.57
2022-11-15T17:10:47.889Z,115.00
2022-11-15T17:13:15.028Z,122.60
2022-11-15T17:15:42.509Z,116.77
2022-11-15T17:18:15.917Z,107.30
2022-11-15T17:20:44.260Z,115.37
2022-11-15T17:23:14.785Z,121.13
2022-11-15T17:25:42.121Z,121.17
2022-11-15T17:28:09.012Z,139.20
2022-11-15T17:30:35.953Z,138.30
2022-11-15T17:33:02.909Z,148.17
2022-11-15T17:35:29.675Z,154.10
2022-11-15T17:37:56.538Z,206.63
2022-11-15T17:40:23.381Z,222.23
2022-11-15T17:42:50.276Z,226.77
2022-11-15T17:45:17.122Z,220.67
2022-11-15T17:47:43.991Z,264.27
2022-11-15T17:50:11.810Z,289.93
2022-11-15T17:52:38.673Z,384.23
2022-11-15T17:55:06.028Z,231.70
2022-11-15T17:57:32.900Z,254.13
2022-11-15T17:59:59.765Z,277.43
2022-11-15T18:02:26.857Z,259.00
2022-11-15T18:04:53.700Z,236.33
2022-11-15T18:07:20.614Z,271.70
2022-11-15T18:09:47.488Z,270.50
2022-11-15T18:12:14.309Z,291.07
2022-11-15T18:14:41.123Z,333.20
2022-11-15T18:17:08.140Z,322.87
2022-11-15T18:19:35.097Z,341.73
2022-11-15T18:22:07.460Z,287.60
2022-11-15T18:24:36.933Z,290.07
2022-11-15T18:29:32.952Z,279.93
2022-11-15T18:31:59.965Z,299.07
2022-11-15T18:34:33.533Z,296.67
2022-11-15T18:37:03.142Z,295.63
2022-11-15T18:39:30.735Z,328.17
2022-11-15T18:41:59.130Z,339.13
2022-11-15T18:44:26.056Z,299.77
2022-11-15T18:46:52.922Z,270.47
2022-11-15T18:49:22.777Z,285.23
2022-11-15T18:51:55.945Z,265.10
2022-11-15T18:54:28.085Z,264.87
2022-11-15T18:56:57.682Z,256.67
2022-11-15T18:59:25.091Z,272.77
2022-11-15T19:01:52.383Z,279.83
2022-11-15T19:04:21.085Z,291.90
2022-11-15T19:06:49.896Z,296.13
2022-11-15T19:09:18.462Z,305.80
2022-11-15T19:11:47.194Z,331.85
2022-11-15T19:14:16.889Z,348.80
2022-11-15T19:16:46.445Z,332.70
2022-11-15T19:19:16.210Z,354.17
2022-11-15T19:21:44.070Z,365.40
2022-11-15T19:24:10.909Z,336.67
2022-11-15T19:26:38.559Z,348.33
2022-11-15T19:29:07.404Z,311.37
2022-11-15T19:31:34.599Z,324.75
2022-11-15T19:34:04.697Z,298.33
2022-11-15T19:36:35.970Z,303.47
2022-11-15T19:39:08.386Z,233.87
2022-11-15T19:41:38.643Z,234.43
2022-11-15T19:44:06.750Z,213.03
2022-11-15T19:46:34.339Z,210.70
2022-11-15T19:49:01.421Z,189.33
2022-11-15T19:51:30.442Z,199.97
2022-11-15T19:54:01.887Z,214.80
2022-11-15T19:56:28.761Z,240.97
2022-11-15T19:58:56.593Z,256.17
2022-11-15T20:01:28.869Z,264.23
2022-11-15T20:03:58.701Z,303.57
2022-11-15T20:06:28.459Z,298.77
2022-11-15T20:08:55.955Z,340.50
2022-11-15T20:11:23.004Z,378.87
2022-11-15T20:13:49.890Z,421.80
2022-11-15T20:16:19.914Z,381.77
2022-11-15T20:18:47.276Z,336.80
2022-11-15T20:21:14.524Z,384.90
2022-11-15T20:23:41.794Z,377.07
2022-11-15T20:26:10.042Z,385.60
2022-11-15T20:28:38.668Z,294.57
2022-11-15T20:31:06.576Z,289.98
2022-11-15T20:33:33.415Z,300.13
2022-11-15T20:36:04.936Z,304.80
2022-11-15T20:38:32.247Z,303.00
2022-11-15T20:41:00.490Z,278.03
2022-11-15T20:43:27.832Z,283.27
2022-11-15T20:45:55.666Z,284.00
2022-11-15T20:48:23.023Z,278.20
2022-11-15T20:50:49.918Z,219.47
2022-11-15T20:53:19.436Z,197.07
2022-11-15T20:55:51.230Z,202.37
2022-11-15T20:58:18.579Z,220.37
2022-11-15T21:00:46.295Z,230.27
2022-11-15T21:03:14.664Z,222.00
2022-11-15T21:05:43.864Z,224.30
2022-11-15T21:08:12.086Z,215.00
2022-11-15T21:10:59.311Z,231.70
2022-11-15T21:13:27.020Z,215.37
2022-11-15T21:16:00.677Z,216.03
2022-11-15T21:18:27.464Z,211.37
2022-11-15T21:20:54.616Z,217.47
2022-11-15T21:23:21.673Z,205.63
2022-11-15T21:25:52.233Z,206.67
2022-11-15T21:28:19.240Z,189.87
2022-11-15T21:30:56.765Z,183.57
2022-11-15T21:33:24.102Z,203.03
2022-11-15T21:35:51.707Z,185.33
2022-11-15T21:38:18.583Z,208.23
2022-11-15T21:40:46.315Z,213.90
2022-11-15T21:43:13.117Z,200.30
2022-11-15T21:45:40.020Z,206.83
2022-11-15T21:48:07.440Z,217.13
2022-11-15T21:50:34.583Z,203.97
2022-11-15T21:53:01.413Z,215.57
2022-11-15T21:55:28.212Z,219.77
2022-11-15T21:57:55.034Z,195.57
2022-11-15T22:00:40.342Z,221.27
2022-11-15T22:03:07.144Z,212.60
2022-11-15T22:05:33.991Z,253.23
2022-11-15T22:08:00.792Z,252.63
2022-11-15T22:10:27.574Z,244.27
2022-11-15T22:12:54.467Z,248.43
2022-11-15T22:15:21.314Z,234.93
2022-11-15T22:18:00.172Z,233.27
2022-11-15T22:20:43.989Z,233.25
2022-11-15T22:23:11.872Z,228.90
2022-11-15T22:25:38.734Z,228.77
2022-11-15T22:28:05.647Z,213.00
2022-11-15T22:30:32.561Z,188.97
2022-11-15T22:32:59.343Z,212.07
2022-11-15T22:35:26.128Z,196.87
2022-11-15T22:37:52.968Z,202.53
2022-11-15T22:40:19.840Z,198.40
2022-11-15T22:42:46.653Z,184.30
2022-11-15T22:45:13.486Z,202.43
2022-11-15T22:47:40.282Z,194.40
2022-11-15T22:50:07.754Z,190.77
2022-11-15T22:52:34.887Z,213.23
2022-11-15T22:55:01.736Z,209.13
2022-11-15T22:57:28.502Z,185.50
2022-11-15T22:59:55.469Z,199.00
2022-11-15T23:02:22.349Z,190.57
2022-11-15T23:04:49.117Z,198.73
2022-11-15T23:07:16.011Z,192.77
2022-11-15T23:09:45.422Z,186.67
2022-11-15T23:12:34.236Z,185.80
2022-11-15T23:15:01.073Z,186.50
2022-11-15T23:17:27.975Z,194.93
2022-11-15T23:19:54.885Z,206.00
2022-11-15T23:22:40.262Z,186.43
2022-11-15T23:25:07.433Z,197.07
2022-11-15T23:27:34.331Z,239.97
2022-11-15T23:30:19.584Z,247.33
2022-11-15T23:33:05.130Z,216.77
2022-11-15T23:35:31.907Z,205.50
2022-11-15T23:37:58.788Z,210.63
2022-11-15T23:40:25.622Z,253.20
2022-11-15T23:42:52.557Z,250.17
2022-11-15T23:45:19.432Z,236.90
2022-11-15T23:47:46.335Z,235.57
2022-11-15T23:50:13.160Z,224.90
2022-11-15T23:52:40.081Z,229.73
2022-11-15T23:55:07.103Z,214.27
2022-11-15T23:57:33.951Z,210.23
